• Join FlightAware (Why Join?)
  • Login
  • US Flag 
03:30PM EST


 

Airport Tracker/Info


-or-


 

Live Flight TrackerFlight Track Log ✈ AWI3758 ✈ 26-Apr-2013 ✈ KCLT - CYYZ

Flight Track Log - Related Links

Times and Time Zones

All times are in EDT time to prevent confusion due to time zone crossing. See the AWI3758 flight status page for this flight to view local times or setup timezone preferences in your user account.

Time Position Orientation Groundspeed Altitude Reporting Facility
EDT Latitude Longitude Course Direction KTS MPH feet Rate Location/Type
02:50PM 35.1892 -80.9508 52° Northeast 176 203 1,500  Level Atlanta Center
02:50PM 35.1683 -80.9517 182° South 170 196 2,000 1,412 Climbing Atlanta Center
02:51PM 35.1061 -80.9744 197° South 261 300 3,500 1,945 Climbing Atlanta Center
02:52PM 35.0976 -81.1571 287° West  Level FlightAware Approximate
02:53PM 35.1556 -81.2167 North  Level FlightAware Approximate
02:53PM 35.1028 -81.0939 268° West 289 333 6,700  Level Atlanta Center
02:54PM 35.2516 -81.2167 North  Level FlightAware Approximate
02:54PM 35.1761 -81.1039 354° North 227 261 9,100  Level Atlanta Center
02:55PM 35.3060 -81.1311 52° Northeast  Level FlightAware Approximate
02:55PM 35.2525 -81.0631 24° Northeast 257 296 11,500  Level Atlanta Center
02:56PM 35.3308 -81.0247 22° Northeast 289 333 13,700 1,250 Climbing Atlanta Center
02:57PM 35.4153 -80.9808 23° Northeast 310 357 14,000 150 Climbing Atlanta Center
02:58PM 35.5186 -80.9489 14° North 355 409 14,000  Level Atlanta Center
02:59PM 35.6264 -80.9167 14° North 383 441 14,000 400 Level Atlanta Center
03:00PM 35.7342 -80.8869 13° North 394 453 14,800 1,100 Climbing Atlanta Center
03:01PM 35.8422 -80.8725 North 388 447 16,200 1,400 Climbing Atlanta Center
03:02PM 35.9483 -80.8581 North 388 447 17,600 1,250 Climbing Atlanta Center
03:03PM 36.0583 -80.8411 North 388 447 18,700 1,250 Climbing Atlanta Center
03:04PM 36.1686 -80.8289 North 395 455 20,100 1,400 Climbing Atlanta Center
03:05PM 36.2747 -80.8169 North 390 449 21,500 1,150 Climbing Atlanta Center
03:06PM 36.3722 -80.8028 North 384 442 22,400 1,000 Climbing Atlanta Center
03:07PM 36.4778 -80.7753 12° North 389 448 23,500 1,100 Climbing Atlanta Center
03:08PM 36.5836 -80.7503 11° North 384 442 24,600 1,050 Climbing Atlanta Center
03:09PM 36.6894 -80.7278 10° North 392 451 25,600 1,050 Climbing Atlanta Center
03:10PM 36.7908 -80.7053 10° North 382 440 26,700 1,000 Climbing Atlanta Center
03:11PM 36.8944 -80.6803 11° North 382 440 27,600 800 Climbing Atlanta Center
03:12PM 36.9981 -80.6603 North 377 434 28,300 711 Climbing Atlanta Center
03:14PM 37.2300 -80.5508 21° North 383 441 29,900 688 Climbing Washington Center
03:15PM 37.3283 -80.4969 24° Northeast 389 448 30,500 559 Climbing Washington Center
03:16PM 37.4314 -80.4722 11° North 378 435 31,000 446 Climbing Washington Center
03:17PM 37.5344 -80.4528 North 372 428 31,400 443 Climbing Washington Center
03:18PM 37.6378 -80.4278 11° North 372 428 31,900 504 Climbing Washington Center
03:19PM 37.7303 -80.4100 North 377 434 32,400 504 Climbing Washington Center
03:20PM 37.8353 -80.3881 North 372 428 32,900 295 Climbing Washington Center
03:21PM 37.9364 -80.3656 10° North 372 428 33,000 50 Climbing Washington Center
03:22PM 38.0419 -80.3378 12° North 372 428 33,000  Level Washington Center
03:23PM 38.1553 -80.3133 10° North 372 428 33,000  Level Washington Center
03:24PM 38.2606 -80.2936 North 372 428 33,000  Level Washington Center
03:25PM 38.3658 -80.2683 11° North 372 428 33,000  Level Washington Center
03:26PM 38.4689 -80.2458 10° North 372 428 33,000  Level Washington Center
03:27PM 38.5742 -80.2206 11° North 372 428 33,000  Level Washington Center
03:28PM 38.6708 -80.2000 North 372 428 33,000  Level Washington Center
03:29PM 38.7758 -80.1772 10° North 372 428 33,000  Level Washington Center
03:32PM 39.1553 -80.0825 11° North 393 452 33,000  Level Cleveland Center
03:33PM 39.2592 -80.0575 11° North 388 447 33,000  Level Cleveland Center
03:34PM 39.3675 -80.0328 10° North 388 447 33,000  Level Cleveland Center
03:35PM 39.4736 -80.0075 10° North 388 447 33,000  Level Cleveland Center
03:36PM 39.5778 -79.9853 North 388 447 33,000  Level Cleveland Center
03:37PM 39.6839 -79.9600 10° North 388 447 33,000  Level Cleveland Center
03:38PM 39.7881 -79.9347 11° North 388 447 33,000  Level Cleveland Center
03:39PM 39.8922 -79.9119 10° North 383 441 33,000  Level Cleveland Center
03:40PM 40.0006 -79.8867 10° North 383 441 33,000  Level Cleveland Center
03:41PM 40.1044 -79.8611 11° North 383 441 33,000  Level Cleveland Center
03:42PM 40.2106 -79.8381 North 383 441 33,000  Level Cleveland Center
03:43PM 40.3125 -79.8097 12° North 383 441 33,000  Level Cleveland Center
03:44PM 40.4189 -79.7867 North 383 441 33,000  Level Cleveland Center
03:45PM 40.5250 -79.7608 10° North 383 441 33,000  Level Cleveland Center
03:46PM 40.6289 -79.7350 11° North 383 441 33,000 -50 Level Cleveland Center
03:47PM 40.7331 -79.7117 10° North 388 447 32,900 -500 Descending Cleveland Center
03:48PM 40.8392 -79.6828 12° North 394 453 32,000 -450 Descending Cleveland Center
03:49PM 40.9389 -79.6594 10° North 394 453 32,000  Level Cleveland Center
03:50PM 41.0472 -79.6333 10° North 389 448 32,000  Level Cleveland Center
03:51PM 41.1575 -79.6069 10° North 389 448 32,000  Level Cleveland Center
03:52PM 41.2636 -79.5803 11° North 389 448 32,000  Level Cleveland Center
03:53PM 41.3739 -79.5539 10° North 389 448 32,000  Level Cleveland Center
03:54PM 41.4819 -79.5272 10° North 389 448 32,000 -250 Level Cleveland Center
03:55PM 41.5942 -79.5031 North 394 453 31,500 -900 Descending Cleveland Center
03:56PM 41.7044 -79.4733 11° North 394 453 30,200 -1,300 Descending Cleveland Center
03:57PM 41.8167 -79.4436 11° North 401 461 28,900 -1,300 Descending Cleveland Center
03:58PM 41.9292 -79.4194 North 407 468 27,600 -1,300 Descending Cleveland Center
03:59PM 42.0433 -79.3894 11° North 412 474 26,300 -1,300 Descending Cleveland Center
04:00PM 42.1536 -79.3619 10° North 412 474 25,000 -1,300 Descending Cleveland Center
04:01PM 42.2658 -79.3319 11° North 412 474 23,700 -1,000 Descending Cleveland Center
04:02PM 42.3761 -79.3072 North 412 474 23,000 -700 Descending Cleveland Center
04:03PM 42.4903 -79.2767 11° North 412 474 22,300 -1,100 Descending Cleveland Center
04:04PM 42.5967 -79.2858 356° North 396 456 20,800 -1,500 Descending Cleveland Center
04:05PM 42.6969 -79.2922 357° North 370 426 19,300 -1,300 Descending Cleveland Center
04:06PM 42.7928 -79.3044 355° North 363 418 18,200 -1,300 Descending Cleveland Center
04:07PM 42.8908 -79.3108 357° North 353 406 16,700 -1,631 Descending Cleveland Center
04:08PM 42.9667 -79.2833 15° North 350 403 15,400 -1,573 Descending Toronto Center
04:09PM 43.0500 -79.3167 344° North 330 380 14,000 -1,500 Descending Toronto Center
04:10PM 43.1333 -79.3167 360° North 320 368 12,400 -1,600 Descending Toronto Center